Terminal Aerodrome Forecast
Issued by NWS

Home | Current Version | Previous Version | Text Only | Print | Product List | Glossary On
Versions: 1 2 3 4 5 6 7 8 9 10 11 12 13 14 15 16 17 18 19
000
FTUS44 KMAF 290921 AAA
TAFHOB
TAF AMD
KHOB 290921Z 2909/3006 12006KT P6SM VCTS FEW070CB FEW250
      TEMPO 2909/2913 VRB15G25KT
     FM291600 11010G20KT P6SM SCT040 SCT250
     FM300200 16004KT P6SM FEW200=

USA.gov is the U.S. government's official web portal to all federal, state and local government web resources and services.